sensor_id;sensor_type;location;lat;lon;timestamp;pressure;altitude;pressure_sealevel;temperature;humidity
35226;BME280;21813;49.686;21.766;2023-03-16T00:02:03;98385.13;;;1.56;91.90
35226;BME280;21813;49.686;21.766;2023-03-16T00:04:30;98392.59;;;1.62;91.40
35226;BME280;21813;49.686;21.766;2023-03-16T00:06:58;98395.16;;;1.62;91.35
35226;BME280;21813;49.686;21.766;2023-03-16T00:09:24;98386.66;;;1.60;91.33
35226;BME280;21813;49.686;21.766;2023-03-16T00:11:56;98396.09;;;1.59;91.84
35226;BME280;21813;49.686;21.766;2023-03-16T00:14:23;98392.69;;;1.59;91.40
35226;BME280;21813;49.686;21.766;2023-03-16T00:16:51;98382.63;;;1.54;92.13
35226;BME280;21813;49.686;21.766;2023-03-16T00:19:16;98382.56;;;1.56;91.91
35226;BME280;21813;49.686;21.766;2023-03-16T00:21:43;98387.00;;;1.52;91.91
35226;BME280;21813;49.686;21.766;2023-03-16T00:24:09;98392.84;;;1.56;92.34
35226;BME280;21813;49.686;21.766;2023-03-16T00:26:38;98395.53;;;1.53;92.10
35226;BME280;21813;49.686;21.766;2023-03-16T00:29:03;98393.97;;;1.49;92.24
35226;BME280;21813;49.686;21.766;2023-03-16T00:31:30;98395.81;;;1.47;92.27
35226;BME280;21813;49.686;21.766;2023-03-16T00:33:58;98394.81;;;1.49;92.54
35226;BME280;21813;49.686;21.766;2023-03-16T00:36:25;98387.31;;;1.45;92.16
35226;BME280;21813;49.686;21.766;2023-03-16T00:39:01;98379.75;;;1.42;92.67
35226;BME280;21813;49.686;21.766;2023-03-16T00:42:00;98389.13;;;1.43;92.70
35226;BME280;21813;49.686;21.766;2023-03-16T00:44:58;98387.47;;;1.42;92.48
35226;BME280;21813;49.686;21.766;2023-03-16T00:48:12;98389.13;;;1.43;92.89
35226;BME280;21813;49.686;21.766;2023-03-16T00:51:15;98387.47;;;1.42;92.38
35226;BME280;21813;49.686;21.766;2023-03-16T00:54:15;98382.47;;;1.39;92.87
35226;BME280;21813;49.686;21.766;2023-03-16T01:00:35;98383.28;;;1.39;92.67
35226;BME280;21813;49.686;21.766;2023-03-16T01:04:09;98381.69;;;1.37;92.58
35226;BME280;21813;49.686;21.766;2023-03-16T01:32:17;98414.59;;;1.27;94.09
35226;BME280;21813;49.686;21.766;2023-03-16T01:34:45;98409.53;;;1.25;94.35
35226;BME280;21813;49.686;21.766;2023-03-16T01:37:10;98414.00;;;1.20;94.28
35226;BME280;21813;49.686;21.766;2023-03-16T01:39:38;98418.16;;;1.24;94.81
35226;BME280;21813;49.686;21.766;2023-03-16T01:42:04;98418.91;;;1.26;94.39
35226;BME280;21813;49.686;21.766;2023-03-16T01:52:12;98431.09;;;1.21;95.14
35226;BME280;21813;49.686;21.766;2023-03-16T01:55:01;98420.91;;;1.20;94.57
35226;BME280;21813;49.686;21.766;2023-03-16T01:57:33;98424.19;;;1.23;95.17
35226;BME280;21813;49.686;21.766;2023-03-16T02:00:08;98423.34;;;1.23;95.19
35226;BME280;21813;49.686;21.766;2023-03-16T02:02:37;98430.34;;;1.19;95.14
35226;BME280;21813;49.686;21.766;2023-03-16T02:05:14;98437.91;;;1.22;95.05
35226;BME280;21813;49.686;21.766;2023-03-16T02:07:46;98437.91;;;1.22;95.38
35226;BME280;21813;49.686;21.766;2023-03-16T02:10:26;98443.03;;;1.22;95.22
35226;BME280;21813;49.686;21.766;2023-03-16T02:12:53;98431.22;;;1.18;95.60
35226;BME280;21813;49.686;21.766;2023-03-16T02:15:21;98437.97;;;1.21;96.19
35226;BME280;21813;49.686;21.766;2023-03-16T02:17:48;98440.72;;;1.16;95.90
35226;BME280;21813;49.686;21.766;2023-03-16T02:22:52;98442.38;;;1.17;95.78
35226;BME280;21813;49.686;21.766;2023-03-16T02:25:25;98436.50;;;1.15;96.31
35226;BME280;21813;49.686;21.766;2023-03-16T02:28:11;98432.31;;;1.13;95.84
35226;BME280;21813;49.686;21.766;2023-03-16T02:30:41;98443.41;;;1.13;96.62
35226;BME280;21813;49.686;21.766;2023-03-16T02:33:07;98443.41;;;1.13;95.97
35226;BME280;21813;49.686;21.766;2023-03-16T02:35:34;98438.53;;;1.07;95.93
35226;BME280;21813;49.686;21.766;2023-03-16T02:38:00;98448.75;;;1.09;96.52
35226;BME280;21813;49.686;21.766;2023-03-16T02:40:30;98449.56;;;1.09;96.57
35226;BME280;21813;49.686;21.766;2023-03-16T02:43:06;98461.50;;;1.10;97.02
35226;BME280;21813;49.686;21.766;2023-03-16T02:48:09;98465.09;;;1.06;96.91
35226;BME280;21813;49.686;21.766;2023-03-16T02:50:44;98466.94;;;1.03;96.79
35226;BME280;21813;49.686;21.766;2023-03-16T02:53:12;98467.66;;;1.06;97.40
35226;BME280;21813;49.686;21.766;2023-03-16T02:55:39;98472.16;;;1.01;97.57
35226;BME280;21813;49.686;21.766;2023-03-16T02:58:05;98466.38;;;0.96;97.35
35226;BME280;21813;49.686;21.766;2023-03-16T03:00:32;98474.72;;;1.01;97.89
35226;BME280;21813;49.686;21.766;2023-03-16T03:02:58;98478.19;;;1.00;97.11
35226;BME280;21813;49.686;21.766;2023-03-16T03:05:25;98480.88;;;0.97;97.67
35226;BME280;21813;49.686;21.766;2023-03-16T03:07:51;98476.63;;;0.96;97.91
35226;BME280;21813;49.686;21.766;2023-03-16T03:10:18;98481.84;;;0.93;98.43
35226;BME280;21813;49.686;21.766;2023-03-16T03:12:44;98475.31;;;0.86;98.15
35226;BME280;21813;49.686;21.766;2023-03-16T03:15:15;98485.56;;;0.86;98.25
35226;BME280;21813;49.686;21.766;2023-03-16T03:17:44;98468.63;;;0.82;98.73
35226;BME280;21813;49.686;21.766;2023-03-16T03:20:19;98478.00;;;0.83;98.88
35226;BME280;21813;49.686;21.766;2023-03-16T03:22:48;98477.22;;;0.81;98.97
35226;BME280;21813;49.686;21.766;2023-03-16T03:25:16;98482.22;;;0.84;99.12
35226;BME280;21813;49.686;21.766;2023-03-16T03:27:43;98485.72;;;0.83;98.87
35226;BME280;21813;49.686;21.766;2023-03-16T03:30:17;98491.78;;;0.80;98.64
35226;BME280;21813;49.686;21.766;2023-03-16T03:32:44;98490.09;;;0.79;98.63
35226;BME280;21813;49.686;21.766;2023-03-16T03:35:13;98495.34;;;0.76;99.57
35226;BME280;21813;49.686;21.766;2023-03-16T03:37:42;98503.09;;;0.75;99.29
35226;BME280;21813;49.686;21.766;2023-03-16T03:40:11;98493.00;;;0.70;99.82
35226;BME280;21813;49.686;21.766;2023-03-16T03:42:38;98505.00;;;0.70;99.68
35226;BME280;21813;49.686;21.766;2023-03-16T03:45:04;98515.16;;;0.73;100.00
35226;BME280;21813;49.686;21.766;2023-03-16T03:47:30;98513.50;;;0.72;100.00
35226;BME280;21813;49.686;21.766;2023-03-16T03:49:58;98511.94;;;0.68;100.00
35226;BME280;21813;49.686;21.766;2023-03-16T03:52:23;98522.19;;;0.68;100.00
35226;BME280;21813;49.686;21.766;2023-03-16T03:54:51;98512.94;;;0.64;100.00
35226;BME280;21813;49.686;21.766;2023-03-16T03:57:16;98515.50;;;0.64;100.00
35226;BME280;21813;49.686;21.766;2023-03-16T03:59:44;98517.28;;;0.62;100.00
35226;BME280;21813;49.686;21.766;2023-03-16T04:02:10;98520.66;;;0.64;100.00
35226;BME280;21813;49.686;21.766;2023-03-16T04:04:40;98529.22;;;0.63;100.00
35226;BME280;21813;49.686;21.766;2023-03-16T04:07:06;98525.19;;;0.56;100.00
35226;BME280;21813;49.686;21.766;2023-03-16T04:09:33;98533.63;;;0.59;100.00
35226;BME280;21813;49.686;21.766;2023-03-16T04:11:59;98528.59;;;0.56;100.00
35226;BME280;21813;49.686;21.766;2023-03-16T04:14:27;98529.63;;;0.52;100.00
35226;BME280;21813;49.686;21.766;2023-03-16T04:16:53;98528.00;;;0.50;100.00
35226;BME280;21813;49.686;21.766;2023-03-16T04:19:22;98534.16;;;0.46;100.00
35226;BME280;21813;49.686;21.766;2023-03-16T04:21:48;98535.91;;;0.43;100.00
35226;BME280;21813;49.686;21.766;2023-03-16T04:24:16;98535.03;;;0.44;100.00
35226;BME280;21813;49.686;21.766;2023-03-16T04:26:43;98541.03;;;0.43;100.00
35226;BME280;21813;49.686;21.766;2023-03-16T04:29:14;98554.59;;;0.47;100.00
35226;BME280;21813;49.686;21.766;2023-03-16T04:31:42;98547.19;;;0.39;100.00
35226;BME280;21813;49.686;21.766;2023-03-16T04:34:11;98554.81;;;0.41;100.00
35226;BME280;21813;49.686;21.766;2023-03-16T04:36:37;98551.47;;;0.39;100.00
35226;BME280;21813;49.686;21.766;2023-03-16T04:39:05;98554.19;;;0.34;100.00
35226;BME280;21813;49.686;21.766;2023-03-16T04:41:31;98550.88;;;0.32;100.00
35226;BME280;21813;49.686;21.766;2023-03-16T04:43:58;98548.41;;;0.29;100.00
35226;BME280;21813;49.686;21.766;2023-03-16T04:46:29;98569.56;;;0.34;100.00
35226;BME280;21813;49.686;21.766;2023-03-16T04:48:56;98562.09;;;0.28;100.00
35226;BME280;21813;49.686;21.766;2023-03-16T04:51:23;98579.88;;;0.33;100.00
35226;BME280;21813;49.686;21.766;2023-03-16T04:53:52;98575.72;;;0.30;100.00
35226;BME280;21813;49.686;21.766;2023-03-16T04:56:19;98573.16;;;0.30;100.00
35226;BME280;21813;49.686;21.766;2023-03-16T04:58:47;98579.94;;;0.31;100.00
35226;BME280;21813;49.686;21.766;2023-03-16T05:01:14;98589.38;;;0.31;100.00
35226;BME280;21813;49.686;21.766;2023-03-16T05:03:41;98603.91;;;0.30;100.00
35226;BME280;21813;49.686;21.766;2023-03-16T05:06:08;98595.34;;;0.31;100.00
35226;BME280;21813;49.686;21.766;2023-03-16T05:08:35;98598.06;;;0.27;100.00
35226;BME280;21813;49.686;21.766;2023-03-16T05:11:01;98603.91;;;0.30;100.00
35226;BME280;21813;49.686;21.766;2023-03-16T05:13:27;98602.94;;;0.33;100.00
35226;BME280;21813;49.686;21.766;2023-03-16T05:15:53;98608.06;;;0.33;100.00
35226;BME280;21813;49.686;21.766;2023-03-16T05:18:22;98601.34;;;0.30;100.00
35226;BME280;21813;49.686;21.766;2023-03-16T05:20:51;98603.69;;;0.36;100.00
35226;BME280;21813;49.686;21.766;2023-03-16T05:23:21;98610.59;;;0.34;100.00
35226;BME280;21813;49.686;21.766;2023-03-16T05:25:48;98608.06;;;0.33;100.00
35226;BME280;21813;49.686;21.766;2023-03-16T05:28:16;98622.41;;;0.38;100.00
35226;BME280;21813;49.686;21.766;2023-03-16T05:30:42;98615.59;;;0.37;100.00
35226;BME280;21813;49.686;21.766;2023-03-16T05:33:10;98613.84;;;0.39;100.00
35226;BME280;21813;49.686;21.766;2023-03-16T05:35:36;98618.84;;;0.42;100.00
35226;BME280;21813;49.686;21.766;2023-03-16T05:38:03;98620.53;;;0.43;100.00
35226;BME280;21813;49.686;21.766;2023-03-16T05:40:29;98626.31;;;0.49;100.00
35226;BME280;21813;49.686;21.766;2023-03-16T05:42:56;98631.47;;;0.49;100.00
35226;BME280;21813;49.686;21.766;2023-03-16T05:45:23;98623.81;;;0.47;100.00
35226;BME280;21813;49.686;21.766;2023-03-16T05:47:50;98627.16;;;0.49;100.00
35226;BME280;21813;49.686;21.766;2023-03-16T05:50:16;98627.13;;;0.51;100.00
35226;BME280;21813;49.686;21.766;2023-03-16T05:52:44;98648.28;;;0.56;100.00
35226;BME280;21813;49.686;21.766;2023-03-16T05:55:11;98654.09;;;0.61;100.00
35226;BME280;21813;49.686;21.766;2023-03-16T05:57:39;98655.91;;;0.59;100.00
35226;BME280;21813;49.686;21.766;2023-03-16T06:00:07;98652.44;;;0.60;100.00
35226;BME280;21813;49.686;21.766;2023-03-16T06:02:42;98658.38;;;0.60;100.00
35226;BME280;21813;49.686;21.766;2023-03-16T06:05:08;98669.28;;;0.67;100.00
35226;BME280;21813;49.686;21.766;2023-03-16T06:07:35;98665.94;;;0.65;100.00
35226;BME280;21813;49.686;21.766;2023-03-16T06:10:05;98667.50;;;0.69;100.00
35226;BME280;21813;49.686;21.766;2023-03-16T06:12:32;98670.84;;;0.71;100.00
35226;BME280;21813;49.686;21.766;2023-03-16T06:14:59;98663.22;;;0.69;100.00
35226;BME280;21813;49.686;21.766;2023-03-16T06:17:27;98664.94;;;0.69;100.00
35226;BME280;21813;49.686;21.766;2023-03-16T06:19:52;98671.56;;;0.74;100.00
35226;BME280;21813;49.686;21.766;2023-03-16T06:22:20;98664.53;;;0.79;100.00
35226;BME280;21813;49.686;21.766;2023-03-16T06:24:45;98666.06;;;0.85;100.00
35226;BME280;21813;49.686;21.766;2023-03-16T06:27:13;98678.53;;;0.94;100.00
35226;BME280;21813;49.686;21.766;2023-03-16T06:29:39;98680.00;;;1.01;100.00
35226;BME280;21813;49.686;21.766;2023-03-16T06:35:18;98684.97;;;1.51;99.88
35226;BME280;21813;49.686;21.766;2023-03-16T06:37:45;98688.72;;;1.86;98.35
35226;BME280;21813;49.686;21.766;2023-03-16T06:42:36;98688.19;;;2.80;90.93
35226;BME280;21813;49.686;21.766;2023-03-16T06:45:04;98674.06;;;3.09;89.57
35226;BME280;21813;49.686;21.766;2023-03-16T06:47:30;98683.09;;;3.55;88.18
35226;BME280;21813;49.686;21.766;2023-03-16T06:49:57;98692.91;;;4.02;85.98
35226;BME280;21813;49.686;21.766;2023-03-16T06:52:23;98682.81;;;4.31;81.83
35226;BME280;21813;49.686;21.766;2023-03-16T06:54:50;98688.13;;;4.45;80.79
35226;BME280;21813;49.686;21.766;2023-03-16T06:57:15;98690.00;;;4.59;81.00
35226;BME280;21813;49.686;21.766;2023-03-16T06:59:43;98700.03;;;4.65;80.48
35226;BME280;21813;49.686;21.766;2023-03-16T07:02:12;98698.19;;;4.67;79.88
35226;BME280;21813;49.686;21.766;2023-03-16T07:04:52;98693.22;;;4.97;78.72
35226;BME280;21813;49.686;21.766;2023-03-16T07:07:18;98692.53;;;5.73;74.40
35226;BME280;21813;49.686;21.766;2023-03-16T07:09:49;98693.41;;;6.49;72.83
35226;BME280;21813;49.686;21.766;2023-03-16T07:12:14;98694.03;;;7.11;69.92
35226;BME280;21813;49.686;21.766;2023-03-16T07:14:42;98701.63;;;7.14;69.58
35226;BME280;21813;49.686;21.766;2023-03-16T07:17:07;98707.63;;;7.43;68.20
35226;BME280;21813;49.686;21.766;2023-03-16T07:19:34;98709.34;;;7.97;66.52
35226;BME280;21813;49.686;21.766;2023-03-16T07:22:00;98700.97;;;7.80;63.49
35226;BME280;21813;49.686;21.766;2023-03-16T07:24:34;98707.72;;;7.27;64.92
35226;BME280;21813;49.686;21.766;2023-03-16T07:27:00;98703.47;;;6.84;67.20
35226;BME280;21813;49.686;21.766;2023-03-16T07:29:27;98710.84;;;6.76;66.98
35226;BME280;21813;49.686;21.766;2023-03-16T07:31:53;98708.84;;;6.21;68.73
35226;BME280;21813;49.686;21.766;2023-03-16T07:34:21;98706.31;;;6.35;69.32
35226;BME280;21813;49.686;21.766;2023-03-16T07:36:47;98702.81;;;6.36;68.14
35226;BME280;21813;49.686;21.766;2023-03-16T07:39:14;98714.34;;;6.31;67.33
35226;BME280;21813;49.686;21.766;2023-03-16T07:41:42;98708.00;;;5.91;68.51
35226;BME280;21813;49.686;21.766;2023-03-16T07:44:09;98716.88;;;5.38;70.50
35226;BME280;21813;49.686;21.766;2023-03-16T07:46:36;98725.53;;;4.88;73.92
35226;BME280;21813;49.686;21.766;2023-03-16T07:49:02;98734.53;;;4.97;73.25
35226;BME280;21813;49.686;21.766;2023-03-16T07:51:28;98736.34;;;5.28;72.19
35226;BME280;21813;49.686;21.766;2023-03-16T07:53:54;98726.91;;;5.44;70.64
35226;BME280;21813;49.686;21.766;2023-03-16T07:56:20;98728.31;;;5.50;70.47
35226;BME280;21813;49.686;21.766;2023-03-16T07:58:47;98734.66;;;5.75;70.29
35226;BME280;21813;49.686;21.766;2023-03-16T08:01:12;98738.53;;;6.00;68.58
35226;BME280;21813;49.686;21.766;2023-03-16T08:03:39;98738.59;;;6.14;68.05
35226;BME280;21813;49.686;21.766;2023-03-16T08:06:05;98735.53;;;6.37;67.54
35226;BME280;21813;49.686;21.766;2023-03-16T08:08:32;98741.47;;;6.69;66.65
35226;BME280;21813;49.686;21.766;2023-03-16T08:10:57;98734.75;;;7.37;63.33
35226;BME280;21813;49.686;21.766;2023-03-16T08:13:25;98734.16;;;7.75;60.50
35226;BME280;21813;49.686;21.766;2023-03-16T08:15:51;98742.13;;;7.72;60.49
35226;BME280;21813;49.686;21.766;2023-03-16T08:18:28;98737.66;;;8.15;59.55
35226;BME280;21813;49.686;21.766;2023-03-16T08:20:55;98742.78;;;8.02;59.45
35226;BME280;21813;49.686;21.766;2023-03-16T08:23:23;98742.16;;;7.29;61.29
35226;BME280;21813;49.686;21.766;2023-03-16T08:25:51;98737.81;;;6.57;63.58
35226;BME280;21813;49.686;21.766;2023-03-16T08:28:20;98748.25;;;5.63;65.07
35226;BME280;21813;49.686;21.766;2023-03-16T08:30:52;98757.69;;;5.16;67.91
35226;BME280;21813;49.686;21.766;2023-03-16T08:33:20;98748.47;;;4.95;68.37
35226;BME280;21813;49.686;21.766;2023-03-16T08:35:46;98749.06;;;4.82;68.77
35226;BME280;21813;49.686;21.766;2023-03-16T08:38:14;98740.41;;;4.49;66.61
35226;BME280;21813;49.686;21.766;2023-03-16T08:40:43;98753.44;;;4.12;68.95
35226;BME280;21813;49.686;21.766;2023-03-16T08:43:15;98752.97;;;4.04;68.11
35226;BME280;21813;49.686;21.766;2023-03-16T08:45:44;98747.16;;;3.81;68.23
35226;BME280;21813;49.686;21.766;2023-03-16T08:48:11;98760.50;;;3.89;69.55
35226;BME280;21813;49.686;21.766;2023-03-16T08:50:43;98758.28;;;4.00;65.27
35226;BME280;21813;49.686;21.766;2023-03-16T08:53:12;98764.53;;;4.14;65.95
35226;BME280;21813;49.686;21.766;2023-03-16T08:55:39;98762.19;;;4.26;62.62
35226;BME280;21813;49.686;21.766;2023-03-16T08:58:08;98785.72;;;4.37;62.83
35226;BME280;21813;49.686;21.766;2023-03-16T09:00:35;98782.03;;;4.43;62.89
35226;BME280;21813;49.686;21.766;2023-03-16T09:03:27;98774.06;;;4.48;62.73
35226;BME280;21813;49.686;21.766;2023-03-16T09:06:08;98784.13;;;4.35;62.61
35226;BME280;21813;49.686;21.766;2023-03-16T09:08:37;98779.88;;;4.34;60.55
35226;BME280;21813;49.686;21.766;2023-03-16T09:11:18;98784.56;;;4.26;60.87
35226;BME280;21813;49.686;21.766;2023-03-16T09:16:51;98783.69;;;4.44;60.33
35226;BME280;21813;49.686;21.766;2023-03-16T09:19:19;98794.94;;;4.60;60.45
35226;BME280;21813;49.686;21.766;2023-03-16T09:21:46;98799.81;;;4.66;59.38
35226;BME280;21813;49.686;21.766;2023-03-16T09:24:13;98809.38;;;4.64;58.65
35226;BME280;21813;49.686;21.766;2023-03-16T09:26:42;98788.09;;;4.59;59.33
35226;BME280;21813;49.686;21.766;2023-03-16T09:29:09;98794.31;;;4.55;59.99
35226;BME280;21813;49.686;21.766;2023-03-16T09:31:36;98796.97;;;4.54;60.67
35226;BME280;21813;49.686;21.766;2023-03-16T09:34:03;98788.72;;;4.64;60.50
35226;BME280;21813;49.686;21.766;2023-03-16T09:36:29;98798.75;;;4.70;59.68
35226;BME280;21813;49.686;21.766;2023-03-16T09:38:57;98803.22;;;4.84;59.05
35226;BME280;21813;49.686;21.766;2023-03-16T09:44:28;98794.72;;;4.82;56.76
35226;BME280;21813;49.686;21.766;2023-03-16T09:46:57;98800.56;;;4.85;57.48
35226;BME280;21813;49.686;21.766;2023-03-16T09:49:27;98785.38;;;4.79;55.43
35226;BME280;21813;49.686;21.766;2023-03-16T09:55:00;98796.84;;;4.74;56.95
35226;BME280;21813;49.686;21.766;2023-03-16T09:57:35;98806.66;;;4.84;57.12
35226;BME280;21813;49.686;21.766;2023-03-16T10:05:51;98798.59;;;4.73;55.95
35226;BME280;21813;49.686;21.766;2023-03-16T10:08:32;98802.69;;;4.77;56.04
35226;BME280;21813;49.686;21.766;2023-03-16T10:16:20;98795.69;;;4.97;53.05
35226;BME280;21813;49.686;21.766;2023-03-16T10:18:50;98799.09;;;5.14;53.70
35226;BME280;21813;49.686;21.766;2023-03-16T10:21:18;98791.31;;;5.31;49.47
35226;BME280;21813;49.686;21.766;2023-03-16T10:23:47;98813.34;;;5.39;50.68
35226;BME280;21813;49.686;21.766;2023-03-16T10:26:21;98805.75;;;5.18;49.45
35226;BME280;21813;49.686;21.766;2023-03-16T10:28:50;98809.66;;;5.10;49.18
35226;BME280;21813;49.686;21.766;2023-03-16T10:31:20;98809.81;;;5.07;49.84
35226;BME280;21813;49.686;21.766;2023-03-16T10:33:50;98811.25;;;4.95;49.01
35226;BME280;21813;49.686;21.766;2023-03-16T10:36:30;98804.06;;;4.84;48.25
35226;BME280;21813;49.686;21.766;2023-03-16T10:39:04;98812.50;;;4.88;48.06
35226;BME280;21813;49.686;21.766;2023-03-16T10:41:33;98811.25;;;4.95;49.65
35226;BME280;21813;49.686;21.766;2023-03-16T10:46:56;98821.75;;;5.26;50.84
35226;BME280;21813;49.686;21.766;2023-03-16T10:49:26;98819.28;;;5.41;52.54
35226;BME280;21813;49.686;21.766;2023-03-16T10:51:56;98817.13;;;5.49;53.42
35226;BME280;21813;49.686;21.766;2023-03-16T10:54:33;98810.81;;;5.54;53.60
35226;BME280;21813;49.686;21.766;2023-03-16T10:57:20;98816.13;;;5.51;53.04
35226;BME280;21813;49.686;21.766;2023-03-16T10:59:54;98814.78;;;5.44;52.69
35226;BME280;21813;49.686;21.766;2023-03-16T11:02:50;98809.25;;;5.34;53.60
35226;BME280;21813;49.686;21.766;2023-03-16T11:10:37;98813.59;;;5.34;52.98
35226;BME280;21813;49.686;21.766;2023-03-16T11:15:41;98811.97;;;5.49;52.52
35226;BME280;21813;49.686;21.766;2023-03-16T11:18:21;98808.97;;;5.56;50.40
35226;BME280;21813;49.686;21.766;2023-03-16T11:20:52;98801.72;;;5.63;48.71
35226;BME280;21813;49.686;21.766;2023-03-16T11:23:27;98795.97;;;5.73;50.74
35226;BME280;21813;49.686;21.766;2023-03-16T11:25:57;98813.50;;;5.68;48.87
35226;BME280;21813;49.686;21.766;2023-03-16T11:28:35;98825.31;;;5.57;49.30
35226;BME280;21813;49.686;21.766;2023-03-16T11:34:16;98804.63;;;5.24;51.18
35226;BME280;21813;49.686;21.766;2023-03-16T11:36:49;98809.19;;;5.19;51.35
35226;BME280;21813;49.686;21.766;2023-03-16T11:44:43;98811.16;;;5.14;50.75
35226;BME280;21813;49.686;21.766;2023-03-16T11:50:13;98800.53;;;5.20;51.09
35226;BME280;21813;49.686;21.766;2023-03-16T11:52:55;98810.81;;;5.37;50.71
35226;BME280;21813;49.686;21.766;2023-03-16T11:55:31;98804.03;;;5.52;48.18
35226;BME280;21813;49.686;21.766;2023-03-16T12:00:58;98801.78;;;5.61;47.56
35226;BME280;21813;49.686;21.766;2023-03-16T12:06:18;98811.00;;;5.67;47.80
35226;BME280;21813;49.686;21.766;2023-03-16T12:11:53;98818.16;;;5.62;50.34
35226;BME280;21813;49.686;21.766;2023-03-16T12:14:22;98824.34;;;5.59;51.88
35226;BME280;21813;49.686;21.766;2023-03-16T12:17:16;98819.97;;;5.60;52.58
35226;BME280;21813;49.686;21.766;2023-03-16T12:19:50;98819.16;;;5.59;52.62
35226;BME280;21813;49.686;21.766;2023-03-16T12:22:22;98821.81;;;5.58;52.63
35226;BME280;21813;49.686;21.766;2023-03-16T12:24:52;98823.31;;;5.62;52.26
35226;BME280;21813;49.686;21.766;2023-03-16T12:27:35;98807.56;;;5.66;51.49
35226;BME280;21813;49.686;21.766;2023-03-16T12:30:59;98815.00;;;5.72;51.44
35226;BME280;21813;49.686;21.766;2023-03-16T12:35:56;98798.00;;;5.68;52.09
35226;BME280;21813;49.686;21.766;2023-03-16T12:38:50;98809.97;;;5.69;50.37
35226;BME280;21813;49.686;21.766;2023-03-16T12:44:13;98817.66;;;5.71;50.24
35226;BME280;21813;49.686;21.766;2023-03-16T12:46:59;98819.00;;;5.62;51.31
35226;BME280;21813;49.686;21.766;2023-03-16T12:49:35;98817.31;;;5.61;51.74
35226;BME280;21813;49.686;21.766;2023-03-16T12:52:05;98830.16;;;5.63;51.46
35226;BME280;21813;49.686;21.766;2023-03-16T12:54:33;98825.06;;;5.61;51.93
35226;BME280;21813;49.686;21.766;2023-03-16T12:57:07;98830.16;;;5.63;49.79
35226;BME280;21813;49.686;21.766;2023-03-16T12:59:39;98832.66;;;5.64;49.24
35226;BME280;21813;49.686;21.766;2023-03-16T13:04:40;98814.84;;;5.75;50.01
35226;BME280;21813;49.686;21.766;2023-03-16T13:07:14;98816.03;;;5.86;49.26
35226;BME280;21813;49.686;21.766;2023-03-16T13:09:46;98813.03;;;5.93;50.18
35226;BME280;21813;49.686;21.766;2023-03-16T13:12:28;98811.13;;;5.97;49.42
35226;BME280;21813;49.686;21.766;2023-03-16T13:14:59;98817.06;;;6.14;47.68
35226;BME280;21813;49.686;21.766;2023-03-16T13:17:29;98819.41;;;6.19;48.33
35226;BME280;21813;49.686;21.766;2023-03-16T13:22:46;98829.06;;;6.15;49.42
35226;BME280;21813;49.686;21.766;2023-03-16T13:27:54;98823.63;;;6.20;50.64
35226;BME280;21813;49.686;21.766;2023-03-16T13:30:26;98831.16;;;6.25;49.99
35226;BME280;21813;49.686;21.766;2023-03-16T13:32:59;98831.31;;;6.21;48.90
35226;BME280;21813;49.686;21.766;2023-03-16T13:35:29;98834.25;;;6.15;48.46
35226;BME280;21813;49.686;21.766;2023-03-16T13:38:02;98831.25;;;6.07;46.67
35226;BME280;21813;49.686;21.766;2023-03-16T13:40:31;98845.69;;;5.96;45.28
35226;BME280;21813;49.686;21.766;2023-03-16T13:42:58;98823.63;;;5.89;46.84
35226;BME280;21813;49.686;21.766;2023-03-16T13:45:31;98822.41;;;5.78;47.91
35226;BME280;21813;49.686;21.766;2023-03-16T13:47:59;98849.38;;;5.74;47.73
35226;BME280;21813;49.686;21.766;2023-03-16T13:50:34;98840.88;;;5.72;47.39
35226;BME280;21813;49.686;21.766;2023-03-16T13:53:03;98830.59;;;5.71;47.01
35226;BME280;21813;49.686;21.766;2023-03-16T13:55:37;98839.03;;;5.74;47.95
35226;BME280;21813;49.686;21.766;2023-03-16T13:58:03;98841.84;;;5.70;47.56
35226;BME280;21813;49.686;21.766;2023-03-16T14:00:35;98839.50;;;5.65;48.38
35226;BME280;21813;49.686;21.766;2023-03-16T14:03:34;98842.44;;;5.59;48.37
35226;BME280;21813;49.686;21.766;2023-03-16T14:06:04;98841.50;;;5.60;50.45
35226;BME280;21813;49.686;21.766;2023-03-16T14:08:30;98845.34;;;5.69;49.04
35226;BME280;21813;49.686;21.766;2023-03-16T14:10:59;98844.06;;;5.77;48.15
35226;BME280;21813;49.686;21.766;2023-03-16T14:16:01;98831.00;;;5.96;46.06
35226;BME280;21813;49.686;21.766;2023-03-16T14:18:41;98832.25;;;6.05;44.48
35226;BME280;21813;49.686;21.766;2023-03-16T14:21:34;98824.06;;;6.12;41.55
35226;BME280;21813;49.686;21.766;2023-03-16T14:24:00;98844.69;;;6.14;43.78
35226;BME280;21813;49.686;21.766;2023-03-16T14:26:44;98839.84;;;6.08;46.84
35226;BME280;21813;49.686;21.766;2023-03-16T14:29:29;98849.59;;;6.03;47.90
35226;BME280;21813;49.686;21.766;2023-03-16T14:31:58;98845.75;;;5.94;48.67
35226;BME280;21813;49.686;21.766;2023-03-16T14:34:50;98848.22;;;5.80;48.49
35226;BME280;21813;49.686;21.766;2023-03-16T14:37:17;98852.84;;;5.73;48.61
35226;BME280;21813;49.686;21.766;2023-03-16T14:39:44;98848.03;;;5.67;48.99
35226;BME280;21813;49.686;21.766;2023-03-16T14:42:20;98864.22;;;5.71;49.47
35226;BME280;21813;49.686;21.766;2023-03-16T14:44:49;98862.72;;;5.67;49.45
35226;BME280;21813;49.686;21.766;2023-03-16T14:47:25;98860.53;;;5.59;49.46
35226;BME280;21813;49.686;21.766;2023-03-16T14:49:53;98862.50;;;5.54;49.73
35226;BME280;21813;49.686;21.766;2023-03-16T14:52:25;98866.19;;;5.50;49.15
35226;BME280;21813;49.686;21.766;2023-03-16T14:54:56;98861.13;;;5.47;50.13
35226;BME280;21813;49.686;21.766;2023-03-16T14:57:25;98866.38;;;5.46;49.96
35226;BME280;21813;49.686;21.766;2023-03-16T14:59:54;98864.56;;;5.48;49.49
35226;BME280;21813;49.686;21.766;2023-03-16T15:02:27;98864.50;;;5.49;49.58
35226;BME280;21813;49.686;21.766;2023-03-16T15:04:55;98855.50;;;5.56;49.93
35226;BME280;21813;49.686;21.766;2023-03-16T15:07:34;98859.44;;;5.63;49.75
35226;BME280;21813;49.686;21.766;2023-03-16T15:12:41;98857.13;;;5.74;48.10
35226;BME280;21813;49.686;21.766;2023-03-16T15:15:17;98854.41;;;5.77;46.82